sensor_id;sensor_type;location;lat;lon;timestamp;pressure;altitude;pressure_sealevel;temperature;humidity
13013;BME280;22580;57.670;12.006;2023-04-09T00:02:03;102807.34;;;16.82;30.76
13013;BME280;22580;57.670;12.006;2023-04-09T00:04:32;102799.66;;;17.03;30.40
13013;BME280;22580;57.670;12.006;2023-04-09T00:06:59;102784.97;;;15.95;31.78
13013;BME280;22580;57.670;12.006;2023-04-09T00:09:26;102799.63;;;15.61;32.43
13013;BME280;22580;57.670;12.006;2023-04-09T00:11:53;102782.16;;;15.52;32.38
13013;BME280;22580;57.670;12.006;2023-04-09T00:14:22;102753.53;;;15.80;31.78
13013;BME280;22580;57.670;12.006;2023-04-09T00:16:49;102785.78;;;16.39;31.46
13013;BME280;22580;57.670;12.006;2023-04-09T00:19:16;102789.59;;;16.50;31.73
13013;BME280;22580;57.670;12.006;2023-04-09T00:21:44;102749.63;;;15.99;32.02
13013;BME280;22580;57.670;12.006;2023-04-09T00:24:12;102790.88;;;16.16;31.71
13013;BME280;22580;57.670;12.006;2023-04-09T00:26:41;102787.47;;;15.98;32.12
13013;BME280;22580;57.670;12.006;2023-04-09T00:29:08;102783.81;;;15.99;32.43
13013;BME280;22580;57.670;12.006;2023-04-09T00:31:35;102754.72;;;15.90;32.38
13013;BME280;22580;57.670;12.006;2023-04-09T00:34:01;102741.22;;;15.46;32.97
13013;BME280;22580;57.670;12.006;2023-04-09T00:36:30;102785.53;;;15.86;32.86
13013;BME280;22580;57.670;12.006;2023-04-09T00:38:58;102792.38;;;15.91;32.74
13013;BME280;22580;57.670;12.006;2023-04-09T00:41:25;102739.94;;;15.37;33.65
13013;BME280;22580;57.670;12.006;2023-04-09T00:43:59;102719.94;;;15.41;33.14
13013;BME280;22580;57.670;12.006;2023-04-09T00:46:26;102781.19;;;15.83;33.10
13013;BME280;22580;57.670;12.006;2023-04-09T00:48:58;102787.75;;;15.93;33.13
13013;BME280;22580;57.670;12.006;2023-04-09T00:51:25;102777.16;;;15.90;33.06
13013;BME280;22580;57.670;12.006;2023-04-09T00:53:53;102692.56;;;15.33;33.18
13013;BME280;22580;57.670;12.006;2023-04-09T00:56:26;102780.97;;;15.58;33.78
13013;BME280;22580;57.670;12.006;2023-04-09T00:58:54;102793.16;;;15.63;33.57
13013;BME280;22580;57.670;12.006;2023-04-09T01:01:21;102731.25;;;15.32;33.62
13013;BME280;22580;57.670;12.006;2023-04-09T01:03:48;102720.16;;;15.22;33.73
13013;BME280;22580;57.670;12.006;2023-04-09T01:06:27;102778.22;;;15.88;33.27
13013;BME280;22580;57.670;12.006;2023-04-09T01:09:02;102776.50;;;16.01;33.22
13013;BME280;22580;57.670;12.006;2023-04-09T01:11:38;102728.97;;;15.70;33.36
13013;BME280;22580;57.670;12.006;2023-04-09T01:14:22;102768.59;;;15.98;33.17
13013;BME280;22580;57.670;12.006;2023-04-09T01:16:54;102770.81;;;15.61;33.50
13013;BME280;22580;57.670;12.006;2023-04-09T01:19:43;102726.50;;;16.24;32.26
13013;BME280;22580;57.670;12.006;2023-04-09T01:22:28;102764.94;;;16.13;32.60
13013;BME280;22580;57.670;12.006;2023-04-09T01:25:03;102754.09;;;16.56;32.14
13013;BME280;22580;57.670;12.006;2023-04-09T01:27:50;102725.53;;;16.11;32.41
13013;BME280;22580;57.670;12.006;2023-04-09T01:30:22;102754.91;;;16.44;32.07
13013;BME280;22580;57.670;12.006;2023-04-09T01:32:51;102761.38;;;14.93;34.18
13013;BME280;22580;57.670;12.006;2023-04-09T01:35:29;102777.44;;;15.26;34.05
13013;BME280;22580;57.670;12.006;2023-04-09T01:37:57;102717.63;;;14.73;33.88
13013;BME280;22580;57.670;12.006;2023-04-09T01:40:24;102772.88;;;15.42;33.85
13013;BME280;22580;57.670;12.006;2023-04-09T01:42:52;102763.84;;;15.43;33.97
13013;BME280;22580;57.670;12.006;2023-04-09T01:45:21;102731.69;;;14.94;34.02
13013;BME280;22580;57.670;12.006;2023-04-09T01:47:49;102765.47;;;15.46;33.64
13013;BME280;22580;57.670;12.006;2023-04-09T01:50:16;102704.66;;;14.33;34.73
13013;BME280;22580;57.670;12.006;2023-04-09T01:52:43;102687.03;;;13.45;36.56
13013;BME280;22580;57.670;12.006;2023-04-09T01:55:10;102784.78;;;13.43;37.10
13013;BME280;22580;57.670;12.006;2023-04-09T01:57:37;102784.06;;;14.57;35.26
13013;BME280;22580;57.670;12.006;2023-04-09T02:00:06;102774.50;;;14.83;35.21
13013;BME280;22580;57.670;12.006;2023-04-09T02:02:45;102779.28;;;14.47;36.23
13013;BME280;22580;57.670;12.006;2023-04-09T02:05:14;102780.94;;;14.32;36.25
13013;BME280;22580;57.670;12.006;2023-04-09T02:07:46;102731.53;;;14.50;35.05
13013;BME280;22580;57.670;12.006;2023-04-09T02:10:18;102781.09;;;15.09;34.50
13013;BME280;22580;57.670;12.006;2023-04-09T02:12:49;102734.09;;;14.99;34.61
13013;BME280;22580;57.670;12.006;2023-04-09T02:15:18;102726.28;;;14.31;35.79
13013;BME280;22580;57.670;12.006;2023-04-09T02:17:46;102773.75;;;13.99;36.23
13013;BME280;22580;57.670;12.006;2023-04-09T02:20:15;102738.78;;;13.66;36.90
13013;BME280;22580;57.670;12.006;2023-04-09T02:22:43;102750.06;;;14.39;35.78
13013;BME280;22580;57.670;12.006;2023-04-09T02:25:11;102680.44;;;13.68;36.20
13013;BME280;22580;57.670;12.006;2023-04-09T02:27:38;102681.56;;;14.13;35.14
13013;BME280;22580;57.670;12.006;2023-04-09T02:30:06;102768.94;;;14.86;34.69
13013;BME280;22580;57.670;12.006;2023-04-09T02:32:33;102687.81;;;14.29;35.08
13013;BME280;22580;57.670;12.006;2023-04-09T02:35:02;102775.97;;;14.89;35.28
13013;BME280;22580;57.670;12.006;2023-04-09T02:37:30;102752.47;;;15.38;33.80
13013;BME280;22580;57.670;12.006;2023-04-09T02:39:57;102724.81;;;15.34;33.65
13013;BME280;22580;57.670;12.006;2023-04-09T02:42:24;102726.66;;;15.34;33.78
13013;BME280;22580;57.670;12.006;2023-04-09T02:44:51;102706.53;;;15.09;33.49
13013;BME280;22580;57.670;12.006;2023-04-09T02:47:21;102768.44;;;15.41;33.85
13013;BME280;22580;57.670;12.006;2023-04-09T02:49:48;102713.16;;;15.04;33.85
13013;BME280;22580;57.670;12.006;2023-04-09T02:52:16;102761.88;;;15.31;34.35
13013;BME280;22580;57.670;12.006;2023-04-09T02:54:44;102769.34;;;15.26;34.50
13013;BME280;22580;57.670;12.006;2023-04-09T02:57:11;102762.25;;;15.09;34.11
13013;BME280;22580;57.670;12.006;2023-04-09T02:59:38;102714.78;;;14.45;34.99
13013;BME280;22580;57.670;12.006;2023-04-09T03:02:06;102699.75;;;14.72;34.18
13013;BME280;22580;57.670;12.006;2023-04-09T03:04:33;102709.78;;;15.00;33.87
13013;BME280;22580;57.670;12.006;2023-04-09T03:07:00;102702.25;;;14.75;34.14
13013;BME280;22580;57.670;12.006;2023-04-09T03:09:28;102748.59;;;15.12;34.38
13013;BME280;22580;57.670;12.006;2023-04-09T03:11:55;102682.88;;;14.85;34.08
13013;BME280;22580;57.670;12.006;2023-04-09T03:14:22;102726.47;;;14.91;34.40
13013;BME280;22580;57.670;12.006;2023-04-09T03:16:49;102757.28;;;15.17;34.17
13013;BME280;22580;57.670;12.006;2023-04-09T03:19:16;102751.19;;;14.68;34.97
13013;BME280;22580;57.670;12.006;2023-04-09T03:21:44;102745.22;;;15.08;34.52
13013;BME280;22580;57.670;12.006;2023-04-09T03:24:13;102737.72;;;14.68;35.09
13013;BME280;22580;57.670;12.006;2023-04-09T03:26:41;102745.81;;;14.35;35.63
13013;BME280;22580;57.670;12.006;2023-04-09T03:29:08;102743.19;;;14.66;34.74
13013;BME280;22580;57.670;12.006;2023-04-09T03:31:35;102684.22;;;15.07;34.19
13013;BME280;22580;57.670;12.006;2023-04-09T03:34:03;102735.41;;;15.37;34.06
13013;BME280;22580;57.670;12.006;2023-04-09T03:36:30;102745.56;;;15.02;34.29
13013;BME280;22580;57.670;12.006;2023-04-09T03:38:57;102749.84;;;14.91;34.66
13013;BME280;22580;57.670;12.006;2023-04-09T03:41:26;102735.22;;;15.11;34.34
13013;BME280;22580;57.670;12.006;2023-04-09T03:43:55;102695.19;;;14.89;33.99
13013;BME280;22580;57.670;12.006;2023-04-09T03:46:24;102740.31;;;15.31;33.99
13013;BME280;22580;57.670;12.006;2023-04-09T03:48:51;102673.53;;;15.06;33.68
13013;BME280;22580;57.670;12.006;2023-04-09T03:51:20;102714.19;;;15.17;33.37
13013;BME280;22580;57.670;12.006;2023-04-09T03:53:47;102737.56;;;15.17;33.62
13013;BME280;22580;57.670;12.006;2023-04-09T03:56:15;102740.75;;;14.46;34.94
13013;BME280;22580;57.670;12.006;2023-04-09T03:58:42;102700.09;;;14.02;35.11
13013;BME280;22580;57.670;12.006;2023-04-09T04:01:10;102754.06;;;14.32;35.27
13013;BME280;22580;57.670;12.006;2023-04-09T04:03:37;102743.97;;;14.68;34.66
13013;BME280;22580;57.670;12.006;2023-04-09T04:06:04;102752.00;;;14.84;34.64
13013;BME280;22580;57.670;12.006;2023-04-09T04:08:31;102712.91;;;14.93;33.85
13013;BME280;22580;57.670;12.006;2023-04-09T04:11:02;102729.44;;;14.87;34.10
13013;BME280;22580;57.670;12.006;2023-04-09T04:13:30;102748.09;;;14.74;34.68
13013;BME280;22580;57.670;12.006;2023-04-09T04:15:59;102711.13;;;14.46;34.37
13013;BME280;22580;57.670;12.006;2023-04-09T04:18:27;102757.50;;;14.67;34.81
13013;BME280;22580;57.670;12.006;2023-04-09T04:20:54;102748.03;;;13.94;35.55
13013;BME280;22580;57.670;12.006;2023-04-09T04:23:21;102703.78;;;14.17;35.09
13013;BME280;22580;57.670;12.006;2023-04-09T04:25:50;102736.50;;;14.58;34.65
13013;BME280;22580;57.670;12.006;2023-04-09T04:28:18;102748.56;;;14.51;34.81
13013;BME280;22580;57.670;12.006;2023-04-09T04:30:44;102740.81;;;14.45;34.51
13013;BME280;22580;57.670;12.006;2023-04-09T04:33:13;102710.91;;;14.18;35.17
13013;BME280;22580;57.670;12.006;2023-04-09T04:35:47;102755.16;;;14.28;35.19
13013;BME280;22580;57.670;12.006;2023-04-09T04:38:14;102750.78;;;14.09;35.23
13013;BME280;22580;57.670;12.006;2023-04-09T04:40:41;102744.56;;;14.42;34.48
13013;BME280;22580;57.670;12.006;2023-04-09T04:43:08;102758.88;;;14.42;34.75
13013;BME280;22580;57.670;12.006;2023-04-09T04:45:35;102771.88;;;14.17;35.21
13013;BME280;22580;57.670;12.006;2023-04-09T04:48:02;102764.09;;;14.28;35.11
13013;BME280;22580;57.670;12.006;2023-04-09T04:50:29;102757.50;;;14.18;34.94
13013;BME280;22580;57.670;12.006;2023-04-09T04:52:58;102757.41;;;14.20;35.05
13013;BME280;22580;57.670;12.006;2023-04-09T04:55:37;102759.59;;;14.29;34.95
13013;BME280;22580;57.670;12.006;2023-04-09T04:58:04;102748.00;;;14.11;35.44
13013;BME280;22580;57.670;12.006;2023-04-09T05:00:31;102760.84;;;14.39;35.09
13013;BME280;22580;57.670;12.006;2023-04-09T05:02:58;102763.50;;;14.56;34.89
13013;BME280;22580;57.670;12.006;2023-04-09T05:05:25;102760.03;;;14.70;34.21
13013;BME280;22580;57.670;12.006;2023-04-09T05:07:52;102744.91;;;14.67;35.57
13013;BME280;22580;57.670;12.006;2023-04-09T05:10:20;102752.25;;;14.95;34.51
13013;BME280;22580;57.670;12.006;2023-04-09T05:12:47;102765.78;;;15.25;35.14
13013;BME280;22580;57.670;12.006;2023-04-09T05:15:14;102775.34;;;15.15;34.65
13013;BME280;22580;57.670;12.006;2023-04-09T05:17:41;102770.25;;;14.95;34.23
13013;BME280;22580;57.670;12.006;2023-04-09T05:20:10;102769.50;;;15.38;34.12
13013;BME280;22580;57.670;12.006;2023-04-09T05:22:37;102763.88;;;15.27;33.94
13013;BME280;22580;57.670;12.006;2023-04-09T05:25:05;102761.25;;;15.26;34.04
13013;BME280;22580;57.670;12.006;2023-04-09T05:27:34;102772.28;;;15.37;34.32
13013;BME280;22580;57.670;12.006;2023-04-09T05:30:01;102775.22;;;15.48;33.52
13013;BME280;22580;57.670;12.006;2023-04-09T05:32:28;102757.94;;;15.36;33.83
13013;BME280;22580;57.670;12.006;2023-04-09T05:34:55;102756.00;;;15.68;33.60
13013;BME280;22580;57.670;12.006;2023-04-09T05:37:22;102749.94;;;15.65;33.59
13013;BME280;22580;57.670;12.006;2023-04-09T05:39:49;102764.69;;;15.73;32.99
13013;BME280;22580;57.670;12.006;2023-04-09T05:42:16;102760.44;;;15.69;33.16
13013;BME280;22580;57.670;12.006;2023-04-09T05:44:44;102742.56;;;15.97;32.11
13013;BME280;22580;57.670;12.006;2023-04-09T05:47:11;102769.38;;;16.14;31.82
13013;BME280;22580;57.670;12.006;2023-04-09T05:49:38;102765.50;;;16.04;32.74
13013;BME280;22580;57.670;12.006;2023-04-09T05:52:05;102772.25;;;16.11;32.48
13013;BME280;22580;57.670;12.006;2023-04-09T05:54:31;102768.47;;;15.85;32.66
13013;BME280;22580;57.670;12.006;2023-04-09T05:56:58;102773.72;;;16.31;31.61
13013;BME280;22580;57.670;12.006;2023-04-09T05:59:25;102774.41;;;16.34;31.71
13013;BME280;22580;57.670;12.006;2023-04-09T06:01:54;102775.25;;;16.21;31.93
13013;BME280;22580;57.670;12.006;2023-04-09T06:04:21;102771.88;;;16.46;31.45
13013;BME280;22580;57.670;12.006;2023-04-09T06:06:48;102776.28;;;16.47;31.56
13013;BME280;22580;57.670;12.006;2023-04-09T06:09:17;102778.84;;;16.91;30.31
13013;BME280;22580;57.670;12.006;2023-04-09T06:11:44;102770.69;;;16.64;30.19
13013;BME280;22580;57.670;12.006;2023-04-09T06:14:11;102778.97;;;16.61;30.62
13013;BME280;22580;57.670;12.006;2023-04-09T06:16:42;102775.31;;;16.48;30.47
13013;BME280;22580;57.670;12.006;2023-04-09T06:19:10;102770.53;;;16.38;30.72
13013;BME280;22580;57.670;12.006;2023-04-09T06:21:37;102786.63;;;16.68;30.48
13013;BME280;22580;57.670;12.006;2023-04-09T06:24:05;102777.91;;;16.49;30.41
13013;BME280;22580;57.670;12.006;2023-04-09T06:26:32;102780.34;;;16.68;30.28
13013;BME280;22580;57.670;12.006;2023-04-09T06:28:59;102790.19;;;16.69;30.24
13013;BME280;22580;57.670;12.006;2023-04-09T06:31:26;102745.22;;;16.54;30.05
13013;BME280;22580;57.670;12.006;2023-04-09T06:33:53;102789.41;;;16.81;30.16
13013;BME280;22580;57.670;12.006;2023-04-09T06:36:22;102799.31;;;16.95;30.01
13013;BME280;22580;57.670;12.006;2023-04-09T06:38:49;102797.16;;;17.00;29.95
13013;BME280;22580;57.670;12.006;2023-04-09T06:41:16;102796.56;;;16.68;30.03
13013;BME280;22580;57.670;12.006;2023-04-09T06:43:45;102798.84;;;16.60;29.97
13013;BME280;22580;57.670;12.006;2023-04-09T06:46:14;102784.88;;;16.53;30.13
13013;BME280;22580;57.670;12.006;2023-04-09T06:48:42;102801.25;;;16.79;29.73
13013;BME280;22580;57.670;12.006;2023-04-09T06:51:10;102795.50;;;16.70;29.84
13013;BME280;22580;57.670;12.006;2023-04-09T06:53:38;102795.94;;;16.91;29.76
13013;BME280;22580;57.670;12.006;2023-04-09T06:56:06;102804.22;;;17.02;29.66
13013;BME280;22580;57.670;12.006;2023-04-09T06:58:33;102770.75;;;16.91;29.55
13013;BME280;22580;57.670;12.006;2023-04-09T07:01:00;102806.84;;;16.61;30.31
13013;BME280;22580;57.670;12.006;2023-04-09T07:03:27;102776.44;;;17.27;29.20
13013;BME280;22580;57.670;12.006;2023-04-09T07:05:54;102744.66;;;17.04;28.87
13013;BME280;22580;57.670;12.006;2023-04-09T07:08:22;102802.97;;;17.48;28.53
13013;BME280;22580;57.670;12.006;2023-04-09T07:10:51;102795.19;;;17.56;28.38
13013;BME280;22580;57.670;12.006;2023-04-09T07:13:18;102802.66;;;17.52;28.48
13013;BME280;22580;57.670;12.006;2023-04-09T07:15:47;102799.28;;;17.76;28.22
13013;BME280;22580;57.670;12.006;2023-04-09T07:18:14;102765.06;;;17.75;28.06
13013;BME280;22580;57.670;12.006;2023-04-09T07:20:41;102802.69;;;18.17;27.57
13013;BME280;22580;57.670;12.006;2023-04-09T07:23:08;102798.63;;;18.23;27.67
13013;BME280;22580;57.670;12.006;2023-04-09T07:25:36;102803.44;;;18.19;27.33
13013;BME280;22580;57.670;12.006;2023-04-09T07:28:04;102797.00;;;18.20;27.42
13013;BME280;22580;57.670;12.006;2023-04-09T07:30:31;102752.72;;;18.21;27.09
13013;BME280;22580;57.670;12.006;2023-04-09T07:33:01;102795.41;;;17.92;27.65
13013;BME280;22580;57.670;12.006;2023-04-09T07:35:28;102796.88;;;17.71;28.08
13013;BME280;22580;57.670;12.006;2023-04-09T07:37:56;102803.97;;;17.99;27.95
13013;BME280;22580;57.670;12.006;2023-04-09T07:40:23;102769.31;;;17.79;27.88
13013;BME280;22580;57.670;12.006;2023-04-09T07:42:50;102790.06;;;18.42;26.66
13013;BME280;22580;57.670;12.006;2023-04-09T07:45:19;102794.38;;;18.82;26.28
13013;BME280;22580;57.670;12.006;2023-04-09T07:47:46;102773.00;;;18.90;25.82
13013;BME280;22580;57.670;12.006;2023-04-09T07:50:13;102774.59;;;19.17;25.76
13013;BME280;22580;57.670;12.006;2023-04-09T07:52:40;102791.28;;;18.99;25.12
13013;BME280;22580;57.670;12.006;2023-04-09T07:55:07;102776.94;;;18.74;24.41
13013;BME280;22580;57.670;12.006;2023-04-09T07:57:34;102766.47;;;18.93;23.46
13013;BME280;22580;57.670;12.006;2023-04-09T08:00:02;102786.06;;;19.20;23.20
13013;BME280;22580;57.670;12.006;2023-04-09T08:02:30;102781.19;;;19.02;23.62
13013;BME280;22580;57.670;12.006;2023-04-09T08:04:57;102747.94;;;19.11;22.79
13013;BME280;22580;57.670;12.006;2023-04-09T08:07:24;102749.41;;;18.80;23.40
13013;BME280;22580;57.670;12.006;2023-04-09T08:09:51;102784.78;;;19.37;22.77
13013;BME280;22580;57.670;12.006;2023-04-09T08:12:18;102780.66;;;18.96;22.75
13013;BME280;22580;57.670;12.006;2023-04-09T08:14:45;102787.84;;;18.85;23.01
13013;BME280;22580;57.670;12.006;2023-04-09T08:17:12;102779.16;;;18.92;22.51
13013;BME280;22580;57.670;12.006;2023-04-09T08:19:40;102762.03;;;19.51;21.87
13013;BME280;22580;57.670;12.006;2023-04-09T08:22:07;102778.28;;;19.40;21.83
13013;BME280;22580;57.670;12.006;2023-04-09T08:24:34;102781.75;;;19.42;22.08
13013;BME280;22580;57.670;12.006;2023-04-09T08:27:01;102770.31;;;19.95;23.88
13013;BME280;22580;57.670;12.006;2023-04-09T08:29:29;102765.94;;;20.39;23.97
13013;BME280;22580;57.670;12.006;2023-04-09T08:31:56;102781.38;;;21.26;23.49
13013;BME280;22580;57.670;12.006;2023-04-09T08:34:23;102762.47;;;21.67;22.45
13013;BME280;22580;57.670;12.006;2023-04-09T08:37:00;102758.19;;;21.64;21.16
13013;BME280;22580;57.670;12.006;2023-04-09T08:39:27;102764.06;;;21.90;21.34
13013;BME280;22580;57.670;12.006;2023-04-09T08:41:57;102732.31;;;22.00;21.07
13013;BME280;22580;57.670;12.006;2023-04-09T08:44:28;102755.97;;;22.20;20.68
13013;BME280;22580;57.670;12.006;2023-04-09T08:46:55;102751.91;;;21.73;20.94
13013;BME280;22580;57.670;12.006;2023-04-09T08:49:23;102756.56;;;21.82;20.90
13013;BME280;22580;57.670;12.006;2023-04-09T08:51:50;102718.97;;;21.97;20.30
13013;BME280;22580;57.670;12.006;2023-04-09T08:54:18;102752.50;;;22.18;20.58
13013;BME280;22580;57.670;12.006;2023-04-09T08:56:45;102723.47;;;21.56;21.68
13013;BME280;22580;57.670;12.006;2023-04-09T08:59:14;102713.88;;;21.83;21.18
13013;BME280;22580;57.670;12.006;2023-04-09T09:01:42;102754.78;;;22.44;21.11
13013;BME280;22580;57.670;12.006;2023-04-09T09:04:11;102743.91;;;22.63;21.42
13013;BME280;22580;57.670;12.006;2023-04-09T09:06:39;102717.47;;;22.54;21.13
13013;BME280;22580;57.670;12.006;2023-04-09T09:09:07;102732.25;;;21.70;21.24
13013;BME280;22580;57.670;12.006;2023-04-09T09:11:36;102723.91;;;22.34;21.76
13013;BME280;22580;57.670;12.006;2023-04-09T09:14:04;102753.41;;;22.78;21.04
13013;BME280;22580;57.670;12.006;2023-04-09T09:16:33;102745.34;;;22.67;21.27
13013;BME280;22580;57.670;12.006;2023-04-09T09:19:01;102743.34;;;22.69;21.45
13013;BME280;22580;57.670;12.006;2023-04-09T09:21:28;102750.47;;;22.41;21.86
13013;BME280;22580;57.670;12.006;2023-04-09T09:23:56;102750.16;;;22.84;21.29
13013;BME280;22580;57.670;12.006;2023-04-09T09:26:24;102753.50;;;22.98;21.16
13013;BME280;22580;57.670;12.006;2023-04-09T09:28:53;102731.50;;;22.89;21.26
13013;BME280;22580;57.670;12.006;2023-04-09T09:31:23;102741.59;;;23.08;21.45
13013;BME280;22580;57.670;12.006;2023-04-09T09:33:50;102741.44;;;23.00;20.62
13013;BME280;22580;57.670;12.006;2023-04-09T09:36:31;102738.44;;;23.13;20.93
13013;BME280;22580;57.670;12.006;2023-04-09T09:38:59;102747.19;;;23.07;20.69
13013;BME280;22580;57.670;12.006;2023-04-09T09:41:28;102743.59;;;23.26;20.92
13013;BME280;22580;57.670;12.006;2023-04-09T09:43:57;102737.44;;;23.24;21.07
13013;BME280;22580;57.670;12.006;2023-04-09T09:46:24;102716.59;;;23.23;20.95
13013;BME280;22580;57.670;12.006;2023-04-09T09:48:52;102724.91;;;22.82;20.99
13013;BME280;22580;57.670;12.006;2023-04-09T09:51:24;102732.69;;;23.16;21.22
13013;BME280;22580;57.670;12.006;2023-04-09T09:53:54;102731.38;;;23.01;20.67
13013;BME280;22580;57.670;12.006;2023-04-09T09:56:23;102719.34;;;23.13;20.96
13013;BME280;22580;57.670;12.006;2023-04-09T09:59:04;102725.94;;;23.20;21.00
13013;BME280;22580;57.670;12.006;2023-04-09T10:01:32;102724.91;;;23.40;21.04
13013;BME280;22580;57.670;12.006;2023-04-09T10:04:00;102717.72;;;23.49;21.35
13013;BME280;22580;57.670;12.006;2023-04-09T10:06:28;102716.41;;;23.72;20.87
13013;BME280;22580;57.670;12.006;2023-04-09T10:08:57;102728.53;;;23.31;20.24
13013;BME280;22580;57.670;12.006;2023-04-09T10:11:25;102688.44;;;22.93;20.28
13013;BME280;22580;57.670;12.006;2023-04-09T10:13:56;102704.25;;;23.28;20.91
13013;BME280;22580;57.670;12.006;2023-04-09T10:16:25;102721.16;;;23.41;20.52
13013;BME280;22580;57.670;12.006;2023-04-09T10:18:52;102695.16;;;23.47;20.31
13013;BME280;22580;57.670;12.006;2023-04-09T10:21:27;102723.03;;;23.50;20.34
13013;BME280;22580;57.670;12.006;2023-04-09T10:23:57;102702.19;;;23.49;20.60
13013;BME280;22580;57.670;12.006;2023-04-09T10:26:24;102706.13;;;23.37;20.08
13013;BME280;22580;57.670;12.006;2023-04-09T10:29:05;102709.44;;;23.12;20.34
13013;BME280;22580;57.670;12.006;2023-04-09T10:31:47;102713.88;;;22.53;20.13
13013;BME280;22580;57.670;12.006;2023-04-09T10:34:17;102704.25;;;23.09;20.25
13013;BME280;22580;57.670;12.006;2023-04-09T10:36:45;102692.72;;;21.96;20.73
13013;BME280;22580;57.670;12.006;2023-04-09T10:39:16;102705.34;;;21.97;19.87
13013;BME280;22580;57.670;12.006;2023-04-09T10:41:43;102703.75;;;22.15;19.39
13013;BME280;22580;57.670;12.006;2023-04-09T10:44:20;102702.06;;;22.24;20.65
13013;BME280;22580;57.670;12.006;2023-04-09T10:46:48;102685.81;;;22.53;19.98
13013;BME280;22580;57.670;12.006;2023-04-09T10:49:17;102696.28;;;22.67;19.67
13013;BME280;22580;57.670;12.006;2023-04-09T10:51:49;102656.25;;;23.54;19.55
13013;BME280;22580;57.670;12.006;2023-04-09T10:54:38;102688.53;;;24.15;19.31
13013;BME280;22580;57.670;12.006;2023-04-09T10:57:16;102678.50;;;24.06;18.54
13013;BME280;22580;57.670;12.006;2023-04-09T10:59:44;102680.94;;;23.63;18.28
13013;BME280;22580;57.670;12.006;2023-04-09T11:05:42;102678.50;;;23.60;18.78
13013;BME280;22580;57.670;12.006;2023-04-09T11:08:11;102670.50;;;23.95;18.37
13013;BME280;22580;57.670;12.006;2023-04-09T11:10:40;102679.41;;;24.25;18.32
13013;BME280;22580;57.670;12.006;2023-04-09T11:13:10;102684.09;;;24.05;17.11
13013;BME280;22580;57.670;12.006;2023-04-09T11:15:37;102680.66;;;24.03;18.69
13013;BME280;22580;57.670;12.006;2023-04-09T11:18:05;102682.31;;;24.23;17.90
13013;BME280;22580;57.670;12.006;2023-04-09T11:20:34;102645.22;;;23.83;17.84
13013;BME280;22580;57.670;12.006;2023-04-09T11:23:03;102682.84;;;23.99;17.73
13013;BME280;22580;57.670;12.006;2023-04-09T11:25:32;102669.41;;;24.15;17.58
13013;BME280;22580;57.670;12.006;2023-04-09T11:28:02;102662.03;;;24.26;17.78
13013;BME280;22580;57.670;12.006;2023-04-09T11:30:29;102642.13;;;23.69;17.57
13013;BME280;22580;57.670;12.006;2023-04-09T11:32:59;102672.53;;;24.21;18.26
13013;BME280;22580;57.670;12.006;2023-04-09T11:35:26;102666.88;;;24.32;17.96
13013;BME280;22580;57.670;12.006;2023-04-09T11:37:53;102629.22;;;23.98;18.17
13013;BME280;22580;57.670;12.006;2023-04-09T11:40:22;102653.84;;;24.43;17.88
13013;BME280;22580;57.670;12.006;2023-04-09T11:42:51;102669.50;;;23.11;18.50
13013;BME280;22580;57.670;12.006;2023-04-09T11:45:20;102662.13;;;23.60;19.12
13013;BME280;22580;57.670;12.006;2023-04-09T11:47:48;102658.31;;;23.80;18.85
13013;BME280;22580;57.670;12.006;2023-04-09T11:50:15;102665.13;;;23.47;19.73
13013;BME280;22580;57.670;12.006;2023-04-09T11:52:43;102658.25;;;23.99;18.47
13013;BME280;22580;57.670;12.006;2023-04-09T11:55:22;102653.50;;;24.01;18.71
13013;BME280;22580;57.670;12.006;2023-04-09T11:57:51;102652.66;;;23.91;18.80
13013;BME280;22580;57.670;12.006;2023-04-09T12:00:22;102660.81;;;23.64;18.63
13013;BME280;22580;57.670;12.006;2023-04-09T12:03:01;102656.97;;;23.94;19.31
13013;BME280;22580;57.670;12.006;2023-04-09T12:05:31;102651.97;;;23.33;18.97
13013;BME280;22580;57.670;12.006;2023-04-09T12:07:59;102621.28;;;22.82;19.20
13013;BME280;22580;57.670;12.006;2023-04-09T12:10:30;102603.44;;;23.17;19.48
13013;BME280;22580;57.670;12.006;2023-04-09T12:13:00;102649.09;;;23.91;18.74
13013;BME280;22580;57.670;12.006;2023-04-09T12:15:31;102642.38;;;24.12;18.75
13013;BME280;22580;57.670;12.006;2023-04-09T12:17:58;102645.81;;;23.77;19.01
13013;BME280;22580;57.670;12.006;2023-04-09T12:20:29;102619.78;;;23.83;18.92
13013;BME280;22580;57.670;12.006;2023-04-09T12:23:02;102647.31;;;23.62;19.78
13013;BME280;22580;57.670;12.006;2023-04-09T12:25:34;102653.03;;;24.06;19.40
13013;BME280;22580;57.670;12.006;2023-04-09T12:28:03;102640.94;;;24.36;19.18
13013;BME280;22580;57.670;12.006;2023-04-09T12:30:30;102640.69;;;24.74;18.54
13013;BME280;22580;57.670;12.006;2023-04-09T12:32:58;102641.47;;;24.84;18.54
13013;BME280;22580;57.670;12.006;2023-04-09T12:35:27;102648.06;;;25.09;18.41
13013;BME280;22580;57.670;12.006;2023-04-09T12:37:54;102639.06;;;24.99;18.32
13013;BME280;22580;57.670;12.006;2023-04-09T12:40:25;102635.13;;;24.84;18.08
13013;BME280;22580;57.670;12.006;2023-04-09T12:43:02;102613.09;;;24.68;18.46
13013;BME280;22580;57.670;12.006;2023-04-09T12:45:34;102639.66;;;24.75;18.67
13013;BME280;22580;57.670;12.006;2023-04-09T12:48:02;102620.19;;;24.43;19.13
13013;BME280;22580;57.670;12.006;2023-04-09T12:50:29;102637.47;;;24.61;18.90
13013;BME280;22580;57.670;12.006;2023-04-09T12:53:00;102639.16;;;25.33;17.99